sensor_id;sensor_type;location;lat;lon;timestamp;P1;durP1;ratioP1;P2;durP2;ratioP2
16294;SDS011;8255;49.560;8.244;2022-07-23T00:01:33;5.60;;;5.20;;
16294;SDS011;8255;49.560;8.244;2022-07-23T00:03:59;5.90;;;5.28;;
16294;SDS011;8255;49.560;8.244;2022-07-23T00:06:27;5.65;;;5.03;;
16294;SDS011;8255;49.560;8.244;2022-07-23T00:08:53;5.53;;;4.95;;
16294;SDS011;8255;49.560;8.244;2022-07-23T00:11:20;5.40;;;4.85;;
16294;SDS011;8255;49.560;8.244;2022-07-23T00:13:47;5.65;;;5.25;;
16294;SDS011;8255;49.560;8.244;2022-07-23T00:16:13;5.88;;;5.45;;
16294;SDS011;8255;49.560;8.244;2022-07-23T00:18:39;5.70;;;5.20;;
16294;SDS011;8255;49.560;8.244;2022-07-23T00:21:06;5.57;;;5.18;;
16294;SDS011;8255;49.560;8.244;2022-07-23T00:23:34;6.00;;;5.40;;
16294;SDS011;8255;49.560;8.244;2022-07-23T00:26:00;5.18;;;4.78;;
16294;SDS011;8255;49.560;8.244;2022-07-23T00:28:27;6.35;;;5.55;;
16294;SDS011;8255;49.560;8.244;2022-07-23T00:30:54;6.13;;;4.97;;
16294;SDS011;8255;49.560;8.244;2022-07-23T00:33:20;5.30;;;4.90;;
16294;SDS011;8255;49.560;8.244;2022-07-23T00:35:47;5.32;;;5.03;;
16294;SDS011;8255;49.560;8.244;2022-07-23T00:38:13;5.82;;;5.25;;
16294;SDS011;8255;49.560;8.244;2022-07-23T00:40:41;5.80;;;5.30;;
16294;SDS011;8255;49.560;8.244;2022-07-23T00:43:08;5.85;;;5.35;;
16294;SDS011;8255;49.560;8.244;2022-07-23T00:45:34;5.57;;;5.18;;
16294;SDS011;8255;49.560;8.244;2022-07-23T00:48:01;5.93;;;5.43;;
16294;SDS011;8255;49.560;8.244;2022-07-23T00:50:27;6.10;;;5.53;;
16294;SDS011;8255;49.560;8.244;2022-07-23T00:52:54;5.60;;;5.20;;
16294;SDS011;8255;49.560;8.244;2022-07-23T00:55:20;6.18;;;5.03;;
16294;SDS011;8255;49.560;8.244;2022-07-23T00:57:49;5.70;;;5.30;;
16294;SDS011;8255;49.560;8.244;2022-07-23T01:00:16;5.38;;;4.97;;
16294;SDS011;8255;49.560;8.244;2022-07-23T01:02:42;5.88;;;4.85;;
16294;SDS011;8255;49.560;8.244;2022-07-23T01:05:09;5.47;;;5.05;;
16294;SDS011;8255;49.560;8.244;2022-07-23T01:07:36;5.63;;;5.15;;
16294;SDS011;8255;49.560;8.244;2022-07-23T01:10:02;5.60;;;5.10;;
16294;SDS011;8255;49.560;8.244;2022-07-23T01:12:29;6.10;;;5.50;;
16294;SDS011;8255;49.560;8.244;2022-07-23T01:14:57;5.20;;;4.82;;
16294;SDS011;8255;49.560;8.244;2022-07-23T01:17:25;5.75;;;5.30;;
16294;SDS011;8255;49.560;8.244;2022-07-23T01:19:52;5.47;;;4.97;;
16294;SDS011;8255;49.560;8.244;2022-07-23T01:22:19;5.18;;;4.78;;
16294;SDS011;8255;49.560;8.244;2022-07-23T01:24:47;5.35;;;5.05;;
16294;SDS011;8255;49.560;8.244;2022-07-23T01:27:16;5.85;;;5.35;;
16294;SDS011;8255;49.560;8.244;2022-07-23T01:29:45;5.85;;;5.40;;
16294;SDS011;8255;49.560;8.244;2022-07-23T01:32:16;5.68;;;5.18;;
16294;SDS011;8255;49.560;8.244;2022-07-23T01:34:43;5.70;;;5.20;;
16294;SDS011;8255;49.560;8.244;2022-07-23T01:37:10;6.03;;;5.43;;
16294;SDS011;8255;49.560;8.244;2022-07-23T01:39:37;5.15;;;4.75;;
16294;SDS011;8255;49.560;8.244;2022-07-23T01:42:05;5.55;;;5.15;;
16294;SDS011;8255;49.560;8.244;2022-07-23T01:44:32;4.93;;;4.63;;
16294;SDS011;8255;49.560;8.244;2022-07-23T01:46:59;5.18;;;4.88;;
16294;SDS011;8255;49.560;8.244;2022-07-23T01:49:25;7.28;;;5.50;;
16294;SDS011;8255;49.560;8.244;2022-07-23T01:51:57;5.93;;;5.40;;
16294;SDS011;8255;49.560;8.244;2022-07-23T01:54:32;5.68;;;5.38;;
16294;SDS011;8255;49.560;8.244;2022-07-23T01:57:00;5.97;;;5.50;;
16294;SDS011;8255;49.560;8.244;2022-07-23T01:59:28;5.85;;;5.43;;
16294;SDS011;8255;49.560;8.244;2022-07-23T02:01:54;6.13;;;5.53;;
16294;SDS011;8255;49.560;8.244;2022-07-23T02:04:21;6.15;;;5.43;;
16294;SDS011;8255;49.560;8.244;2022-07-23T02:06:48;6.60;;;6.00;;
16294;SDS011;8255;49.560;8.244;2022-07-23T02:09:14;6.05;;;5.63;;
16294;SDS011;8255;49.560;8.244;2022-07-23T02:11:41;6.43;;;5.82;;
16294;SDS011;8255;49.560;8.244;2022-07-23T02:14:07;5.68;;;5.25;;
16294;SDS011;8255;49.560;8.244;2022-07-23T02:16:35;5.65;;;5.25;;
16294;SDS011;8255;49.560;8.244;2022-07-23T02:19:01;6.43;;;5.93;;
16294;SDS011;8255;49.560;8.244;2022-07-23T02:21:28;5.85;;;5.38;;
16294;SDS011;8255;49.560;8.244;2022-07-23T02:23:54;5.80;;;5.32;;
16294;SDS011;8255;49.560;8.244;2022-07-23T02:26:21;5.88;;;5.40;;
16294;SDS011;8255;49.560;8.244;2022-07-23T02:28:50;5.85;;;5.45;;
16294;SDS011;8255;49.560;8.244;2022-07-23T02:31:18;6.38;;;5.97;;
16294;SDS011;8255;49.560;8.244;2022-07-23T02:33:45;5.80;;;5.30;;
16294;SDS011;8255;49.560;8.244;2022-07-23T02:36:13;6.40;;;5.90;;
16294;SDS011;8255;49.560;8.244;2022-07-23T02:38:40;5.50;;;5.10;;
16294;SDS011;8255;49.560;8.244;2022-07-23T02:41:07;5.93;;;5.53;;
16294;SDS011;8255;49.560;8.244;2022-07-23T02:43:34;5.85;;;5.35;;
16294;SDS011;8255;49.560;8.244;2022-07-23T02:46:00;6.43;;;5.85;;
16294;SDS011;8255;49.560;8.244;2022-07-23T02:48:27;6.57;;;6.07;;
16294;SDS011;8255;49.560;8.244;2022-07-23T02:50:55;5.78;;;5.38;;
16294;SDS011;8255;49.560;8.244;2022-07-23T02:53:26;6.07;;;5.68;;
16294;SDS011;8255;49.560;8.244;2022-07-23T02:55:53;6.07;;;5.68;;
16294;SDS011;8255;49.560;8.244;2022-07-23T02:58:20;5.47;;;5.07;;
16294;SDS011;8255;49.560;8.244;2022-07-23T03:00:47;6.53;;;6.05;;
16294;SDS011;8255;49.560;8.244;2022-07-23T03:03:13;5.72;;;5.32;;
16294;SDS011;8255;49.560;8.244;2022-07-23T03:05:40;6.13;;;5.63;;
16294;SDS011;8255;49.560;8.244;2022-07-23T03:08:08;5.80;;;5.35;;
16294;SDS011;8255;49.560;8.244;2022-07-23T03:10:37;5.68;;;5.28;;
16294;SDS011;8255;49.560;8.244;2022-07-23T03:13:03;5.75;;;5.32;;
16294;SDS011;8255;49.560;8.244;2022-07-23T03:15:30;5.82;;;5.43;;
16294;SDS011;8255;49.560;8.244;2022-07-23T03:17:57;6.32;;;5.78;;
16294;SDS011;8255;49.560;8.244;2022-07-23T03:20:23;5.63;;;5.22;;
16294;SDS011;8255;49.560;8.244;2022-07-23T03:22:49;5.68;;;5.28;;
16294;SDS011;8255;49.560;8.244;2022-07-23T03:25:17;6.60;;;5.80;;
16294;SDS011;8255;49.560;8.244;2022-07-23T03:27:44;6.32;;;5.93;;
16294;SDS011;8255;49.560;8.244;2022-07-23T03:30:11;6.20;;;5.70;;
16294;SDS011;8255;49.560;8.244;2022-07-23T03:32:37;6.07;;;5.55;;
16294;SDS011;8255;49.560;8.244;2022-07-23T03:35:05;6.68;;;6.15;;
16294;SDS011;8255;49.560;8.244;2022-07-23T03:37:31;6.68;;;6.18;;
16294;SDS011;8255;49.560;8.244;2022-07-23T03:39:58;8.45;;;6.55;;
16294;SDS011;8255;49.560;8.244;2022-07-23T03:42:27;6.70;;;6.25;;
16294;SDS011;8255;49.560;8.244;2022-07-23T03:44:53;6.50;;;6.00;;
16294;SDS011;8255;49.560;8.244;2022-07-23T03:47:20;6.68;;;5.97;;
16294;SDS011;8255;49.560;8.244;2022-07-23T03:49:47;7.45;;;6.70;;
16294;SDS011;8255;49.560;8.244;2022-07-23T03:52:14;6.95;;;6.45;;
16294;SDS011;8255;49.560;8.244;2022-07-23T03:54:40;7.13;;;6.53;;
16294;SDS011;8255;49.560;8.244;2022-07-23T03:57:07;7.50;;;6.90;;
16294;SDS011;8255;49.560;8.244;2022-07-23T03:59:35;7.78;;;6.97;;
16294;SDS011;8255;49.560;8.244;2022-07-23T04:02:01;7.50;;;6.80;;
16294;SDS011;8255;49.560;8.244;2022-07-23T04:04:27;7.60;;;6.82;;
16294;SDS011;8255;49.560;8.244;2022-07-23T04:06:55;7.35;;;6.75;;
16294;SDS011;8255;49.560;8.244;2022-07-23T04:09:21;6.15;;;5.72;;
16294;SDS011;8255;49.560;8.244;2022-07-23T04:11:48;7.85;;;7.25;;
16294;SDS011;8255;49.560;8.244;2022-07-23T04:14:14;7.40;;;6.80;;
16294;SDS011;8255;49.560;8.244;2022-07-23T04:16:42;7.60;;;6.90;;
16294;SDS011;8255;49.560;8.244;2022-07-23T04:19:09;8.77;;;6.85;;
16294;SDS011;8255;49.560;8.244;2022-07-23T04:21:47;7.53;;;6.85;;
16294;SDS011;8255;49.560;8.244;2022-07-23T04:24:13;7.38;;;6.68;;
16294;SDS011;8255;49.560;8.244;2022-07-23T04:26:40;7.85;;;7.15;;
16294;SDS011;8255;49.560;8.244;2022-07-23T04:29:07;7.43;;;6.63;;
16294;SDS011;8255;49.560;8.244;2022-07-23T04:31:34;7.20;;;6.60;;
16294;SDS011;8255;49.560;8.244;2022-07-23T04:34:02;9.20;;;7.82;;
16294;SDS011;8255;49.560;8.244;2022-07-23T04:36:29;8.43;;;7.72;;
16294;SDS011;8255;49.560;8.244;2022-07-23T04:38:55;7.43;;;6.82;;
16294;SDS011;8255;49.560;8.244;2022-07-23T04:41:22;8.00;;;7.30;;
16294;SDS011;8255;49.560;8.244;2022-07-23T04:43:48;7.57;;;6.97;;
16294;SDS011;8255;49.560;8.244;2022-07-23T04:46:15;8.20;;;7.40;;
16294;SDS011;8255;49.560;8.244;2022-07-23T04:48:46;7.97;;;7.28;;
16294;SDS011;8255;49.560;8.244;2022-07-23T04:51:13;7.95;;;7.15;;
16294;SDS011;8255;49.560;8.244;2022-07-23T04:53:40;9.73;;;8.83;;
16294;SDS011;8255;49.560;8.244;2022-07-23T04:56:06;8.82;;;8.02;;
16294;SDS011;8255;49.560;8.244;2022-07-23T04:58:33;8.55;;;7.85;;
16294;SDS011;8255;49.560;8.244;2022-07-23T05:00:59;9.35;;;8.40;;
16294;SDS011;8255;49.560;8.244;2022-07-23T05:03:27;8.68;;;7.88;;
16294;SDS011;8255;49.560;8.244;2022-07-23T05:05:54;9.10;;;8.20;;
16294;SDS011;8255;49.560;8.244;2022-07-23T05:08:21;9.02;;;8.13;;
16294;SDS011;8255;49.560;8.244;2022-07-23T05:10:50;8.80;;;7.97;;
16294;SDS011;8255;49.560;8.244;2022-07-23T05:13:18;8.82;;;8.13;;
16294;SDS011;8255;49.560;8.244;2022-07-23T05:15:45;9.40;;;8.50;;
16294;SDS011;8255;49.560;8.244;2022-07-23T05:18:11;9.38;;;8.57;;
16294;SDS011;8255;49.560;8.244;2022-07-23T05:20:38;9.18;;;8.25;;
16294;SDS011;8255;49.560;8.244;2022-07-23T05:23:06;8.90;;;8.07;;
16294;SDS011;8255;49.560;8.244;2022-07-23T05:25:34;8.52;;;7.82;;
16294;SDS011;8255;49.560;8.244;2022-07-23T05:28:00;8.23;;;7.53;;
16294;SDS011;8255;49.560;8.244;2022-07-23T05:30:27;8.77;;;8.07;;
16294;SDS011;8255;49.560;8.244;2022-07-23T05:32:58;8.38;;;7.68;;
16294;SDS011;8255;49.560;8.244;2022-07-23T05:35:24;8.93;;;8.13;;
16294;SDS011;8255;49.560;8.244;2022-07-23T05:38:10;8.50;;;7.80;;
16294;SDS011;8255;49.560;8.244;2022-07-23T05:40:39;8.05;;;7.32;;
16294;SDS011;8255;49.560;8.244;2022-07-23T05:43:05;9.55;;;8.55;;
16294;SDS011;8255;49.560;8.244;2022-07-23T05:45:33;8.57;;;7.88;;
16294;SDS011;8255;49.560;8.244;2022-07-23T05:47:59;9.02;;;8.18;;
16294;SDS011;8255;49.560;8.244;2022-07-23T05:50:32;8.32;;;7.53;;
16294;SDS011;8255;49.560;8.244;2022-07-23T05:53:05;8.63;;;7.78;;
16294;SDS011;8255;49.560;8.244;2022-07-23T05:55:50;8.15;;;7.45;;
16294;SDS011;8255;49.560;8.244;2022-07-23T05:58:17;8.98;;;8.13;;
16294;SDS011;8255;49.560;8.244;2022-07-23T06:00:44;9.10;;;8.20;;
16294;SDS011;8255;49.560;8.244;2022-07-23T06:03:10;8.80;;;8.07;;
16294;SDS011;8255;49.560;8.244;2022-07-23T06:05:37;9.35;;;8.45;;
16294;SDS011;8255;49.560;8.244;2022-07-23T06:08:04;9.20;;;8.45;;
16294;SDS011;8255;49.560;8.244;2022-07-23T06:10:31;8.95;;;8.05;;
16294;SDS011;8255;49.560;8.244;2022-07-23T06:12:59;9.30;;;8.40;;
16294;SDS011;8255;49.560;8.244;2022-07-23T06:15:26;9.02;;;8.15;;
16294;SDS011;8255;49.560;8.244;2022-07-23T06:17:52;9.20;;;8.40;;
16294;SDS011;8255;49.560;8.244;2022-07-23T06:20:19;9.15;;;8.35;;
16294;SDS011;8255;49.560;8.244;2022-07-23T06:22:45;8.30;;;7.57;;
16294;SDS011;8255;49.560;8.244;2022-07-23T06:25:12;8.55;;;7.78;;
16294;SDS011;8255;49.560;8.244;2022-07-23T06:27:38;8.80;;;7.43;;
16294;SDS011;8255;49.560;8.244;2022-07-23T06:30:07;7.40;;;6.78;;
16294;SDS011;8255;49.560;8.244;2022-07-23T06:32:33;7.38;;;6.78;;
16294;SDS011;8255;49.560;8.244;2022-07-23T06:35:00;9.27;;;8.23;;
16294;SDS011;8255;49.560;8.244;2022-07-23T06:37:26;7.72;;;7.10;;
16294;SDS011;8255;49.560;8.244;2022-07-23T06:39:52;8.48;;;7.75;;
16294;SDS011;8255;49.560;8.244;2022-07-23T06:42:19;7.90;;;7.20;;
16294;SDS011;8255;49.560;8.244;2022-07-23T06:44:52;7.32;;;6.75;;
16294;SDS011;8255;49.560;8.244;2022-07-23T06:47:19;8.57;;;7.82;;
16294;SDS011;8255;49.560;8.244;2022-07-23T06:49:46;7.10;;;6.50;;
16294;SDS011;8255;49.560;8.244;2022-07-23T06:52:12;7.68;;;7.05;;
16294;SDS011;8255;49.560;8.244;2022-07-23T06:54:38;7.32;;;6.65;;
16294;SDS011;8255;49.560;8.244;2022-07-23T06:57:05;8.15;;;7.45;;
16294;SDS011;8255;49.560;8.244;2022-07-23T06:59:31;7.43;;;6.70;;
16294;SDS011;8255;49.560;8.244;2022-07-23T07:01:58;7.57;;;6.90;;
16294;SDS011;8255;49.560;8.244;2022-07-23T07:04:26;8.05;;;7.28;;
16294;SDS011;8255;49.560;8.244;2022-07-23T07:06:52;7.32;;;6.65;;
16294;SDS011;8255;49.560;8.244;2022-07-23T07:09:18;7.78;;;7.10;;
16294;SDS011;8255;49.560;8.244;2022-07-23T07:11:45;7.57;;;6.95;;
16294;SDS011;8255;49.560;8.244;2022-07-23T07:14:11;8.35;;;7.65;;
16294;SDS011;8255;49.560;8.244;2022-07-23T07:16:37;8.77;;;7.95;;
16294;SDS011;8255;49.560;8.244;2022-07-23T07:19:04;8.10;;;7.45;;
16294;SDS011;8255;49.560;8.244;2022-07-23T07:21:32;8.35;;;7.28;;
16294;SDS011;8255;49.560;8.244;2022-07-23T07:23:58;8.57;;;7.70;;
16294;SDS011;8255;49.560;8.244;2022-07-23T07:26:24;8.27;;;7.57;;
16294;SDS011;8255;49.560;8.244;2022-07-23T07:28:51;7.88;;;7.28;;
16294;SDS011;8255;49.560;8.244;2022-07-23T07:31:17;8.23;;;7.53;;
16294;SDS011;8255;49.560;8.244;2022-07-23T07:33:44;7.47;;;6.88;;
16294;SDS011;8255;49.560;8.244;2022-07-23T07:36:10;11.63;;;7.57;;
16294;SDS011;8255;49.560;8.244;2022-07-23T07:38:38;7.95;;;7.25;;
16294;SDS011;8255;49.560;8.244;2022-07-23T07:41:04;8.25;;;7.15;;
16294;SDS011;8255;49.560;8.244;2022-07-23T07:43:30;7.85;;;7.25;;
16294;SDS011;8255;49.560;8.244;2022-07-23T07:45:57;7.88;;;7.07;;
16294;SDS011;8255;49.560;8.244;2022-07-23T07:48:24;7.57;;;6.88;;
16294;SDS011;8255;49.560;8.244;2022-07-23T07:50:50;8.15;;;7.55;;
16294;SDS011;8255;49.560;8.244;2022-07-23T07:53:17;8.07;;;7.38;;
16294;SDS011;8255;49.560;8.244;2022-07-23T07:55:45;8.32;;;7.53;;
16294;SDS011;8255;49.560;8.244;2022-07-23T07:58:11;8.38;;;7.53;;
16294;SDS011;8255;49.560;8.244;2022-07-23T08:00:38;7.65;;;7.05;;
16294;SDS011;8255;49.560;8.244;2022-07-23T08:03:04;7.38;;;6.82;;
16294;SDS011;8255;49.560;8.244;2022-07-23T08:05:31;7.85;;;7.03;;
16294;SDS011;8255;49.560;8.244;2022-07-23T08:07:58;8.48;;;7.68;;
16294;SDS011;8255;49.560;8.244;2022-07-23T08:10:24;7.90;;;7.30;;
16294;SDS011;8255;49.560;8.244;2022-07-23T08:12:53;7.40;;;6.88;;
16294;SDS011;8255;49.560;8.244;2022-07-23T08:15:22;8.68;;;7.22;;
16294;SDS011;8255;49.560;8.244;2022-07-23T08:17:49;7.43;;;6.82;;
16294;SDS011;8255;49.560;8.244;2022-07-23T08:20:17;8.02;;;7.43;;
16294;SDS011;8255;49.560;8.244;2022-07-23T08:22:47;7.28;;;6.57;;
16294;SDS011;8255;49.560;8.244;2022-07-23T08:25:14;7.57;;;6.88;;
16294;SDS011;8255;49.560;8.244;2022-07-23T08:27:40;7.00;;;6.50;;
16294;SDS011;8255;49.560;8.244;2022-07-23T08:30:08;8.55;;;7.75;;
16294;SDS011;8255;49.560;8.244;2022-07-23T08:32:47;6.53;;;6.10;;
16294;SDS011;8255;49.560;8.244;2022-07-23T08:35:13;6.65;;;6.10;;
16294;SDS011;8255;49.560;8.244;2022-07-23T08:37:40;6.53;;;6.07;;
16294;SDS011;8255;49.560;8.244;2022-07-23T08:40:07;6.28;;;5.78;;
16294;SDS011;8255;49.560;8.244;2022-07-23T08:42:33;6.68;;;6.07;;
16294;SDS011;8255;49.560;8.244;2022-07-23T08:45:00;6.53;;;6.00;;
16294;SDS011;8255;49.560;8.244;2022-07-23T08:47:29;6.70;;;6.00;;
16294;SDS011;8255;49.560;8.244;2022-07-23T08:49:56;7.53;;;6.00;;
16294;SDS011;8255;49.560;8.244;2022-07-23T08:52:22;6.50;;;5.90;;
16294;SDS011;8255;49.560;8.244;2022-07-23T08:54:49;6.38;;;5.88;;
16294;SDS011;8255;49.560;8.244;2022-07-23T08:57:16;6.90;;;6.40;;
16294;SDS011;8255;49.560;8.244;2022-07-23T08:59:42;6.47;;;5.97;;
16294;SDS011;8255;49.560;8.244;2022-07-23T09:02:08;6.70;;;6.20;;
16294;SDS011;8255;49.560;8.244;2022-07-23T09:04:36;6.75;;;6.25;;
16294;SDS011;8255;49.560;8.244;2022-07-23T09:07:03;6.78;;;6.18;;
16294;SDS011;8255;49.560;8.244;2022-07-23T09:09:29;7.15;;;6.47;;
16294;SDS011;8255;49.560;8.244;2022-07-23T09:12:06;7.20;;;6.57;;
16294;SDS011;8255;49.560;8.244;2022-07-23T09:14:36;7.80;;;7.20;;
16294;SDS011;8255;49.560;8.244;2022-07-23T09:17:08;8.60;;;7.80;;
16294;SDS011;8255;49.560;8.244;2022-07-23T09:19:34;7.22;;;6.63;;
16294;SDS011;8255;49.560;8.244;2022-07-23T09:25:04;6.97;;;6.53;;
16294;SDS011;8255;49.560;8.244;2022-07-23T09:27:45;6.97;;;6.38;;
16294;SDS011;8255;49.560;8.244;2022-07-23T09:30:11;6.93;;;6.43;;
16294;SDS011;8255;49.560;8.244;2022-07-23T09:32:38;6.85;;;6.15;;
16294;SDS011;8255;49.560;8.244;2022-07-23T09:35:05;6.85;;;6.35;;
16294;SDS011;8255;49.560;8.244;2022-07-23T09:37:31;6.63;;;6.15;;
16294;SDS011;8255;49.560;8.244;2022-07-23T09:40:04;7.70;;;7.10;;
16294;SDS011;8255;49.560;8.244;2022-07-23T09:42:31;7.22;;;6.30;;
16294;SDS011;8255;49.560;8.244;2022-07-23T09:44:58;6.95;;;6.38;;
16294;SDS011;8255;49.560;8.244;2022-07-23T09:47:25;7.00;;;6.50;;
16294;SDS011;8255;49.560;8.244;2022-07-23T09:49:58;6.78;;;6.15;;
16294;SDS011;8255;49.560;8.244;2022-07-23T09:52:25;7.18;;;6.10;;
16294;SDS011;8255;49.560;8.244;2022-07-23T09:54:52;6.97;;;6.38;;
16294;SDS011;8255;49.560;8.244;2022-07-23T09:57:24;6.80;;;6.30;;
16294;SDS011;8255;49.560;8.244;2022-07-23T09:59:52;6.90;;;6.40;;
16294;SDS011;8255;49.560;8.244;2022-07-23T10:02:18;7.05;;;6.47;;
16294;SDS011;8255;49.560;8.244;2022-07-23T10:05:11;6.65;;;6.15;;
16294;SDS011;8255;49.560;8.244;2022-07-23T10:08:07;6.55;;;6.10;;
16294;SDS011;8255;49.560;8.244;2022-07-23T10:11:15;6.78;;;6.35;;
16294;SDS011;8255;49.560;8.244;2022-07-23T10:13:55;6.88;;;6.38;;
16294;SDS011;8255;49.560;8.244;2022-07-23T10:16:31;8.00;;;7.15;;
16294;SDS011;8255;49.560;8.244;2022-07-23T10:18:58;6.22;;;5.82;;
16294;SDS011;8255;49.560;8.244;2022-07-23T10:21:25;7.00;;;6.45;;
16294;SDS011;8255;49.560;8.244;2022-07-23T10:23:58;6.10;;;5.50;;
16294;SDS011;8255;49.560;8.244;2022-07-23T10:26:29;7.10;;;6.50;;
16294;SDS011;8255;49.560;8.244;2022-07-23T10:29:01;10.65;;;6.63;;
16294;SDS011;8255;49.560;8.244;2022-07-23T10:31:35;6.88;;;6.47;;
16294;SDS011;8255;49.560;8.244;2022-07-23T10:34:07;7.20;;;6.70;;
16294;SDS011;8255;49.560;8.244;2022-07-23T10:36:38;6.90;;;6.40;;
16294;SDS011;8255;49.560;8.244;2022-07-23T10:39:07;6.88;;;6.38;;
16294;SDS011;8255;49.560;8.244;2022-07-23T10:41:35;7.50;;;6.90;;
16294;SDS011;8255;49.560;8.244;2022-07-23T10:44:10;7.38;;;6.80;;
16294;SDS011;8255;49.560;8.244;2022-07-23T10:49:25;6.47;;;5.97;;
16294;SDS011;8255;49.560;8.244;2022-07-23T10:54:37;6.60;;;6.10;;
16294;SDS011;8255;49.560;8.244;2022-07-23T10:57:07;6.85;;;6.35;;
16294;SDS011;8255;49.560;8.244;2022-07-23T11:02:23;6.93;;;6.32;;
16294;SDS011;8255;49.560;8.244;2022-07-23T11:04:51;6.63;;;6.13;;
16294;SDS011;8255;49.560;8.244;2022-07-23T11:07:18;6.88;;;6.38;;
16294;SDS011;8255;49.560;8.244;2022-07-23T11:09:45;6.90;;;6.40;;
16294;SDS011;8255;49.560;8.244;2022-07-23T11:12:31;6.53;;;6.07;;
16294;SDS011;8255;49.560;8.244;2022-07-23T11:14:58;6.90;;;6.40;;
16294;SDS011;8255;49.560;8.244;2022-07-23T11:17:26;6.53;;;6.03;;
16294;SDS011;8255;49.560;8.244;2022-07-23T11:22:46;6.93;;;6.43;;
16294;SDS011;8255;49.560;8.244;2022-07-23T11:25:13;6.28;;;5.78;;
16294;SDS011;8255;49.560;8.244;2022-07-23T11:27:41;6.88;;;6.38;;
16294;SDS011;8255;49.560;8.244;2022-07-23T11:30:08;6.72;;;6.13;;
16294;SDS011;8255;49.560;8.244;2022-07-23T11:32:39;6.53;;;6.13;;
16294;SDS011;8255;49.560;8.244;2022-07-23T11:35:20;6.53;;;6.07;;
16294;SDS011;8255;49.560;8.244;2022-07-23T11:37:47;6.78;;;6.28;;
16294;SDS011;8255;49.560;8.244;2022-07-23T11:40:14;6.70;;;6.20;;
16294;SDS011;8255;49.560;8.244;2022-07-23T11:42:50;6.40;;;6.00;;
16294;SDS011;8255;49.560;8.244;2022-07-23T11:45:17;7.20;;;6.57;;
16294;SDS011;8255;49.560;8.244;2022-07-23T11:47:44;6.25;;;5.85;;
16294;SDS011;8255;49.560;8.244;2022-07-23T11:50:11;6.63;;;6.13;;
16294;SDS011;8255;49.560;8.244;2022-07-23T11:52:38;7.07;;;6.47;;
16294;SDS011;8255;49.560;8.244;2022-07-23T11:55:05;6.65;;;6.22;;
16294;SDS011;8255;49.560;8.244;2022-07-23T11:57:32;7.25;;;6.55;;
16294;SDS011;8255;49.560;8.244;2022-07-23T12:00:01;6.18;;;5.78;;
16294;SDS011;8255;49.560;8.244;2022-07-23T12:02:37;6.40;;;6.00;;
16294;SDS011;8255;49.560;8.244;2022-07-23T12:05:06;6.60;;;6.10;;
16294;SDS011;8255;49.560;8.244;2022-07-23T12:07:35;7.15;;;6.63;;
16294;SDS011;8255;49.560;8.244;2022-07-23T12:10:04;6.38;;;5.88;;
16294;SDS011;8255;49.560;8.244;2022-07-23T12:12:37;7.20;;;6.70;;
16294;SDS011;8255;49.560;8.244;2022-07-23T12:15:04;6.57;;;6.07;;
16294;SDS011;8255;49.560;8.244;2022-07-23T12:17:31;6.88;;;6.38;;
16294;SDS011;8255;49.560;8.244;2022-07-23T12:19:59;6.90;;;6.40;;
16294;SDS011;8255;49.560;8.244;2022-07-23T12:22:32;7.45;;;6.75;;
16294;SDS011;8255;49.560;8.244;2022-07-23T12:25:00;6.22;;;5.82;;
16294;SDS011;8255;49.560;8.244;2022-07-23T12:27:27;6.35;;;5.95;;
16294;SDS011;8255;49.560;8.244;2022-07-23T12:29:54;6.82;;;6.30;;
16294;SDS011;8255;49.560;8.244;2022-07-23T12:32:21;6.43;;;5.93;;
16294;SDS011;8255;49.560;8.244;2022-07-23T12:34:48;7.03;;;6.35;;
16294;SDS011;8255;49.560;8.244;2022-07-23T12:37:26;6.13;;;5.65;;
16294;SDS011;8255;49.560;8.244;2022-07-23T12:39:53;5.97;;;5.57;;
16294;SDS011;8255;49.560;8.244;2022-07-23T12:42:19;6.28;;;5.80;;
16294;SDS011;8255;49.560;8.244;2022-07-23T12:45:08;6.25;;;5.85;;
16294;SDS011;8255;49.560;8.244;2022-07-23T12:50:40;6.35;;;5.88;;
16294;SDS011;8255;49.560;8.244;2022-07-23T12:53:09;6.35;;;5.95;;
16294;SDS011;8255;49.560;8.244;2022-07-23T12:55:36;6.20;;;5.80;;
16294;SDS011;8255;49.560;8.244;2022-07-23T12:58:03;6.07;;;5.68;;
16294;SDS011;8255;49.560;8.244;2022-07-23T13:00:30;5.63;;;5.30;;
16294;SDS011;8255;49.560;8.244;2022-07-23T13:02:56;5.85;;;5.45;;
16294;SDS011;8255;49.560;8.244;2022-07-23T13:05:23;5.93;;;5.53;;
16294;SDS011;8255;49.560;8.244;2022-07-23T13:07:50;5.70;;;5.28;;
16294;SDS011;8255;49.560;8.244;2022-07-23T13:10:17;5.88;;;5.32;;
16294;SDS011;8255;49.560;8.244;2022-07-23T13:12:44;5.90;;;5.57;;
16294;SDS011;8255;49.560;8.244;2022-07-23T13:15:10;5.97;;;5.50;;
16294;SDS011;8255;49.560;8.244;2022-07-23T13:17:36;6.18;;;5.68;;
16294;SDS011;8255;49.560;8.244;2022-07-23T13:20:03;5.82;;;5.18;;
16294;SDS011;8255;49.560;8.244;2022-07-23T13:22:30;5.43;;;5.03;;
16294;SDS011;8255;49.560;8.244;2022-07-23T13:24:56;5.75;;;5.32;;
16294;SDS011;8255;49.560;8.244;2022-07-23T13:27:24;6.22;;;5.45;;
16294;SDS011;8255;49.560;8.244;2022-07-23T13:29:50;5.68;;;5.18;;
16294;SDS011;8255;49.560;8.244;2022-07-23T13:32:17;5.50;;;5.00;;
16294;SDS011;8255;49.560;8.244;2022-07-23T13:34:43;5.28;;;4.82;;
16294;SDS011;8255;49.560;8.244;2022-07-23T13:37:09;5.57;;;5.28;;
16294;SDS011;8255;49.560;8.244;2022-07-23T13:39:38;5.25;;;4.95;;
16294;SDS011;8255;49.560;8.244;2022-07-23T13:42:05;5.63;;;5.22;;
16294;SDS011;8255;49.560;8.244;2022-07-23T13:44:33;5.93;;;5.38;;
16294;SDS011;8255;49.560;8.244;2022-07-23T13:46:59;5.85;;;5.45;;
16294;SDS011;8255;49.560;8.244;2022-07-23T13:49:25;5.38;;;5.07;;
16294;SDS011;8255;49.560;8.244;2022-07-23T13:51:52;5.30;;;5.00;;
16294;SDS011;8255;49.560;8.244;2022-07-23T13:54:18;5.72;;;5.32;;
16294;SDS011;8255;49.560;8.244;2022-07-23T13:56:45;5.80;;;5.40;;
16294;SDS011;8255;49.560;8.244;2022-07-23T13:59:11;5.55;;;4.97;;
16294;SDS011;8255;49.560;8.244;2022-07-23T14:01:39;5.20;;;4.90;;
16294;SDS011;8255;49.560;8.244;2022-07-23T14:04:05;5.55;;;5.15;;
16294;SDS011;8255;49.560;8.244;2022-07-23T14:06:32;5.13;;;4.85;;
16294;SDS011;8255;49.560;8.244;2022-07-23T14:08:58;5.43;;;5.00;;
16294;SDS011;8255;49.560;8.244;2022-07-23T14:11:24;5.63;;;5.22;;
16294;SDS011;8255;49.560;8.244;2022-07-23T14:13:51;5.75;;;5.45;;
16294;SDS011;8255;49.560;8.244;2022-07-23T14:16:17;5.90;;;5.50;;
16294;SDS011;8255;49.560;8.244;2022-07-23T14:18:45;5.50;;;5.10;;
16294;SDS011;8255;49.560;8.244;2022-07-23T14:21:11;6.10;;;5.50;;
16294;SDS011;8255;49.560;8.244;2022-07-23T14:23:38;5.70;;;5.28;;
16294;SDS011;8255;49.560;8.244;2022-07-23T14:26:04;5.80;;;5.40;;
16294;SDS011;8255;49.560;8.244;2022-07-23T14:28:32;5.35;;;5.05;;
16294;SDS011;8255;49.560;8.244;2022-07-23T14:30:58;5.10;;;4.80;;
16294;SDS011;8255;49.560;8.244;2022-07-23T14:33:25;5.57;;;5.18;;
16294;SDS011;8255;49.560;8.244;2022-07-23T14:35:52;5.38;;;4.97;;
16294;SDS011;8255;49.560;8.244;2022-07-23T14:38:19;5.47;;;5.18;;
16294;SDS011;8255;49.560;8.244;2022-07-23T14:40:45;5.03;;;4.75;;
16294;SDS011;8255;49.560;8.244;2022-07-23T14:43:11;5.65;;;5.25;;
16294;SDS011;8255;49.560;8.244;2022-07-23T14:45:38;5.47;;;5.07;;
16294;SDS011;8255;49.560;8.244;2022-07-23T14:48:04;4.85;;;4.55;;
16294;SDS011;8255;49.560;8.244;2022-07-23T14:50:31;5.35;;;4.95;;
16294;SDS011;8255;49.560;8.244;2022-07-23T14:52:59;5.63;;;5.10;;
16294;SDS011;8255;49.560;8.244;2022-07-23T14:55:25;5.20;;;4.90;;
16294;SDS011;8255;49.560;8.244;2022-07-23T14:57:52;6.50;;;5.82;;
16294;SDS011;8255;49.560;8.244;2022-07-23T15:00:18;5.18;;;4.78;;
16294;SDS011;8255;49.560;8.244;2022-07-23T15:02:44;6.05;;;5.53;;
16294;SDS011;8255;49.560;8.244;2022-07-23T15:05:11;5.75;;;5.35;;
16294;SDS011;8255;49.560;8.244;2022-07-23T15:07:37;5.55;;;5.15;;
16294;SDS011;8255;49.560;8.244;2022-07-23T15:10:06;5.40;;;5.00;;
16294;SDS011;8255;49.560;8.244;2022-07-23T15:12:32;6.03;;;5.53;;
16294;SDS011;8255;49.560;8.244;2022-07-23T15:14:58;6.25;;;5.47;;
16294;SDS011;8255;49.560;8.244;2022-07-23T15:17:25;6.03;;;5.53;;
16294;SDS011;8255;49.560;8.244;2022-07-23T15:19:51;5.97;;;5.57;;
16294;SDS011;8255;49.560;8.244;2022-07-23T15:22:18;6.10;;;5.70;;